createdAt,value
2023-03-06T00:01:29.270Z,29.28
2023-03-06T00:05:29.213Z,27.91
2023-03-06T00:09:29.194Z,29.57
2023-03-06T00:13:29.171Z,28.18
2023-03-06T00:17:29.146Z,29.82
2023-03-06T00:21:29.088Z,30.43
2023-03-06T00:25:29.066Z,31.75
2023-03-06T00:29:28.998Z,30.31
2023-03-06T00:33:29.050Z,29.72
2023-03-06T00:37:29.190Z,29.02
2023-03-06T00:41:29.291Z,30.67
2023-03-06T00:45:29.590Z,30.78
2023-03-06T00:49:29.673Z,29.81
2023-03-06T00:53:29.803Z,31.07
2023-03-06T00:57:29.940Z,27.97
2023-03-06T01:01:30.098Z,30.64
2023-03-06T01:05:30.206Z,28.83
2023-03-06T01:09:30.294Z,31.76
2023-03-06T01:13:30.530Z,30.19
2023-03-06T01:17:30.537Z,29.79
2023-03-06T01:21:30.682Z,28.63
2023-03-06T01:25:30.715Z,30.59
2023-03-06T01:29:30.793Z,28.89
2023-03-06T01:33:30.882Z,29.89
2023-03-06T01:37:30.895Z,31.10
2023-03-06T01:41:30.980Z,29.69
2023-03-06T01:45:30.989Z,30.40
2023-03-06T01:49:30.957Z,28.40
2023-03-06T01:53:30.965Z,29.22
2023-03-06T01:57:30.999Z,32.41
2023-03-06T02:01:30.986Z,30.05
2023-03-06T02:05:30.947Z,32.01
2023-03-06T02:09:30.967Z,30.93
2023-03-06T02:13:30.967Z,29.93
2023-03-06T02:17:31.067Z,30.71
2023-03-06T02:21:31.046Z,29.94
2023-03-06T02:25:31.021Z,29.96
2023-03-06T02:29:31.032Z,29.46
2023-03-06T02:33:31.013Z,29.72
2023-03-06T02:37:31.014Z,26.70
2023-03-06T02:41:31.035Z,29.52
2023-03-06T02:45:31.035Z,29.36
2023-03-06T02:49:31.004Z,29.99
2023-03-06T02:53:30.989Z,29.66
2023-03-06T02:57:31.018Z,30.07
2023-03-06T03:01:31.044Z,29.87
2023-03-06T03:05:31.022Z,28.60
2023-03-06T03:09:31.010Z,27.94
2023-03-06T03:13:31.033Z,29.69
2023-03-06T03:17:31.044Z,28.62
2023-03-06T03:21:31.103Z,27.80
2023-03-06T03:25:31.105Z,27.77
2023-03-06T03:29:31.098Z,30.24
2023-03-06T03:33:31.201Z,28.15
2023-03-06T03:37:31.206Z,27.35
2023-03-06T03:41:31.623Z,29.42
2023-03-06T03:45:31.199Z,28.83
2023-03-06T03:49:31.284Z,28.06
2023-03-06T03:53:31.280Z,25.94
2023-03-06T03:57:31.331Z,27.97
2023-03-06T04:01:31.563Z,28.98
2023-03-06T04:05:31.415Z,29.44
2023-03-06T04:09:31.450Z,28.42
2023-03-06T04:13:31.496Z,26.69
2023-03-06T04:17:31.546Z,29.64
2023-03-06T04:21:31.632Z,29.76
2023-03-06T04:25:31.675Z,28.08
2023-03-06T04:29:31.684Z,27.84
2023-03-06T04:33:31.701Z,28.93
2023-03-06T04:37:31.721Z,28.93
2023-03-06T04:41:31.747Z,29.42
2023-03-06T04:45:31.798Z,30.61
2023-03-06T04:49:31.825Z,33.76
2023-03-06T04:53:31.822Z,32.51
2023-03-06T04:57:31.909Z,32.51
2023-03-06T05:01:31.978Z,30.32
2023-03-06T05:05:32.142Z,31.73
2023-03-06T05:09:32.186Z,33.32
2023-03-06T05:13:32.266Z,35.86
2023-03-06T05:17:32.312Z,31.77
2023-03-06T05:21:32.366Z,33.69
2023-03-06T05:25:32.345Z,33.33
2023-03-06T05:29:32.425Z,34.31
2023-03-06T05:33:32.445Z,34.83
2023-03-06T05:37:32.495Z,32.86
2023-03-06T05:41:32.523Z,34.87
2023-03-06T05:45:32.568Z,34.59
2023-03-06T05:49:32.565Z,33.36
2023-03-06T05:53:32.641Z,27.70
2023-03-06T05:57:32.652Z,29.60
2023-03-06T06:01:32.661Z,27.66
2023-03-06T06:05:32.694Z,28.87
2023-03-06T06:09:32.747Z,33.41
2023-03-06T06:13:32.715Z,27.36
2023-03-06T06:17:32.753Z,32.44
2023-03-06T06:21:32.756Z,32.85
2023-03-06T06:25:32.762Z,43.08
2023-03-06T06:29:32.797Z,41.63
2023-03-06T06:33:32.768Z,43.62
2023-03-06T06:37:32.803Z,75.68
2023-03-06T06:41:51.090Z,109.83
2023-03-06T06:45:33.788Z,97.69
2023-03-06T06:49:33.197Z,91.02
2023-03-06T06:53:32.681Z,108.79
2023-03-06T06:57:32.687Z,83.10
2023-03-06T07:01:32.818Z,120.12
2023-03-06T07:05:32.810Z,125.48
2023-03-06T07:09:33.205Z,142.73
2023-03-06T07:13:33.191Z,138.56
2023-03-06T07:17:32.725Z,159.36
2023-03-06T07:21:32.711Z,166.64
2023-03-06T07:25:32.690Z,172.45
2023-03-06T07:29:32.717Z,185.65
2023-03-06T07:33:32.595Z,194.25
2023-03-06T07:37:32.731Z,203.91
2023-03-06T07:41:32.528Z,208.99
2023-03-06T07:45:32.717Z,205.66
2023-03-06T07:49:32.478Z,214.83
2023-03-06T07:53:32.704Z,228.59
2023-03-06T07:57:32.704Z,230.64
2023-03-06T08:01:32.374Z,234.93
2023-03-06T08:05:32.397Z,246.18
2023-03-06T08:09:32.384Z,244.82
2023-03-06T08:13:32.725Z,245.74
2023-03-06T08:17:32.359Z,250.00
2023-03-06T08:21:32.255Z,246.98
2023-03-06T08:25:32.224Z,242.96
2023-03-06T08:29:32.438Z,241.77
2023-03-06T08:33:32.141Z,241.53
2023-03-06T08:37:32.146Z,244.62
2023-03-06T08:41:32.243Z,248.42
2023-03-06T08:45:32.396Z,231.47
2023-03-06T08:49:32.255Z,211.09
2023-03-06T08:53:42.534Z,141.37
2023-03-06T08:57:32.939Z,133.89
2023-03-06T09:01:32.249Z,144.05
2023-03-06T09:05:31.861Z,145.40
2023-03-06T09:09:31.844Z,143.03
2023-03-06T09:13:31.908Z,146.10
2023-03-06T09:17:31.918Z,150.13
2023-03-06T09:21:31.857Z,148.57
2023-03-06T09:25:31.815Z,147.30
2023-03-06T09:29:31.813Z,149.68
2023-03-06T09:33:31.735Z,148.84
2023-03-06T09:37:31.762Z,147.61
2023-03-06T09:41:31.746Z,165.62
2023-03-06T09:45:31.642Z,190.02
2023-03-06T09:49:31.613Z,227.24
2023-03-06T09:53:31.756Z,237.30
2023-03-06T09:57:31.763Z,246.02
2023-03-06T10:01:31.514Z,247.28
2023-03-06T10:05:31.475Z,226.19
2023-03-06T10:09:31.456Z,226.87
2023-03-06T10:13:31.419Z,234.67
2023-03-06T10:17:31.777Z,233.19
2023-03-06T10:21:31.515Z,240.85
2023-03-06T10:25:32.267Z,250.00
2023-03-06T10:29:31.533Z,246.52
2023-03-06T10:33:31.761Z,244.53
2023-03-06T10:37:32.654Z,249.46
2023-03-06T10:41:32.295Z,248.93
2023-03-06T10:45:47.292Z,249.94
2023-03-06T10:49:33.307Z,246.00
2023-03-06T10:53:32.185Z,242.84
2023-03-06T10:57:32.134Z,244.82
2023-03-06T11:01:32.343Z,248.75
2023-03-06T11:05:32.056Z,245.91
2023-03-06T11:09:32.059Z,243.27
2023-03-06T11:13:31.986Z,245.79
2023-03-06T11:17:32.003Z,246.45
2023-03-06T11:21:32.287Z,246.41
2023-03-06T11:25:31.894Z,246.79
2023-03-06T11:29:34.298Z,249.42
2023-03-06T11:33:31.796Z,244.95
2023-03-06T11:37:31.804Z,246.35
2023-03-06T11:41:31.738Z,238.89
2023-03-06T11:45:31.789Z,225.30
2023-03-06T11:49:31.681Z,210.19
2023-03-06T11:53:31.611Z,180.23
2023-03-06T11:57:31.575Z,156.03
2023-03-06T12:01:31.538Z,135.31
2023-03-06T12:05:31.561Z,130.46
2023-03-06T12:09:31.487Z,110.27
2023-03-06T12:13:31.477Z,94.67
2023-03-06T12:17:31.802Z,94.37
2023-03-06T12:21:31.362Z,94.32
2023-03-06T12:25:31.333Z,78.53
2023-03-06T12:29:31.368Z,74.03
2023-03-06T12:33:31.232Z,62.64
2023-03-06T12:37:31.338Z,27.52
2023-03-06T12:41:31.193Z,24.49
2023-03-06T12:45:31.300Z,35.71
2023-03-06T12:49:32.995Z,71.34
2023-03-06T12:53:31.309Z,90.74
2023-03-06T12:57:31.129Z,98.52
2023-03-06T13:01:31.179Z,101.38
2023-03-06T13:05:31.311Z,121.12
2023-03-06T13:09:31.315Z,126.95
2023-03-06T13:13:31.272Z,140.34
2023-03-06T13:17:31.216Z,123.68
2023-03-06T13:21:31.350Z,96.37
2023-03-06T13:25:31.304Z,30.56
2023-03-06T13:29:31.122Z,34.35
2023-03-06T13:33:31.088Z,25.00
2023-03-06T13:37:31.062Z,30.21
2023-03-06T13:41:31.099Z,29.03
2023-03-06T13:45:30.988Z,26.47
2023-03-06T13:49:30.948Z,25.52
2023-03-06T13:53:30.941Z,27.13
2023-03-06T13:57:30.890Z,26.63
2023-03-06T14:01:30.903Z,37.56
2023-03-06T14:05:30.782Z,27.59
2023-03-06T14:09:30.754Z,30.13
2023-03-06T14:13:38.411Z,34.15
2023-03-06T14:17:31.708Z,33.61
2023-03-06T14:21:30.665Z,32.67
2023-03-06T14:25:30.722Z,25.36
2023-03-06T14:29:30.697Z,26.46
2023-03-06T14:33:30.633Z,31.13
2023-03-06T14:37:30.642Z,30.11
2023-03-06T14:41:30.587Z,25.85
2023-03-06T14:45:30.559Z,27.89
2023-03-06T14:49:30.513Z,32.23
2023-03-06T14:53:30.476Z,39.35
2023-03-06T14:57:30.428Z,45.55
2023-03-06T15:01:30.485Z,40.98
2023-03-06T15:05:30.350Z,41.63
2023-03-06T15:09:30.359Z,38.68
2023-03-06T15:13:30.400Z,25.00
2023-03-06T15:17:30.245Z,50.47
2023-03-06T15:21:30.202Z,49.75
2023-03-06T15:25:30.207Z,51.69
2023-03-06T15:29:30.142Z,54.28
2023-03-06T15:33:30.113Z,57.92
2023-03-06T15:37:30.077Z,47.24
2023-03-06T15:41:30.026Z,24.63
2023-03-06T15:45:30.064Z,46.77
2023-03-06T15:49:29.992Z,53.64
2023-03-06T15:53:29.946Z,53.51
2023-03-06T15:57:29.924Z,47.03
2023-03-06T16:01:29.981Z,45.85
2023-03-06T16:05:29.877Z,56.01
2023-03-06T16:09:29.992Z,57.43
2023-03-06T16:13:30.070Z,53.31
2023-03-06T16:17:30.105Z,51.08
2023-03-06T16:21:30.214Z,52.15
2023-03-06T16:25:30.316Z,58.10
2023-03-06T16:29:30.452Z,53.76
2023-03-06T16:33:30.612Z,46.01
2023-03-06T16:37:30.791Z,43.82
2023-03-06T16:41:31.000Z,59.56
2023-03-06T16:45:31.139Z,63.75
2023-03-06T16:49:31.321Z,54.21
2023-03-06T16:53:31.468Z,51.06
2023-03-06T16:57:32.391Z,50.86
2023-03-06T17:01:32.005Z,54.76
2023-03-06T17:05:31.990Z,50.08
2023-03-06T17:09:32.182Z,41.89
2023-03-06T17:13:32.355Z,47.32
2023-03-06T17:17:32.597Z,53.88
2023-03-06T17:21:32.537Z,58.13
2023-03-06T17:25:32.529Z,47.47
2023-03-06T17:29:32.502Z,45.61
2023-03-06T17:33:32.469Z,66.19
2023-03-06T17:37:32.405Z,68.52
2023-03-06T17:41:32.412Z,79.00
2023-03-06T17:45:32.350Z,66.39
2023-03-06T17:49:32.307Z,56.24
2023-03-06T17:53:32.283Z,55.06
2023-03-06T17:57:32.305Z,56.86
2023-03-06T18:01:32.193Z,44.45
2023-03-06T18:05:32.192Z,28.85
2023-03-06T18:09:32.280Z,30.06
2023-03-06T18:13:32.404Z,25.77
2023-03-06T18:17:32.549Z,25.64
2023-03-06T18:21:32.714Z,26.03
2023-03-06T18:25:32.899Z,27.87
2023-03-06T18:29:32.852Z,25.74
2023-03-06T18:33:32.861Z,31.92
2023-03-06T18:37:32.835Z,39.80
2023-03-06T18:41:32.778Z,36.76
2023-03-06T18:45:32.772Z,37.01
2023-03-06T18:49:32.732Z,45.82
2023-03-06T18:53:32.658Z,41.95
2023-03-06T18:57:32.649Z,33.50
2023-03-06T19:01:32.632Z,30.09
2023-03-06T19:05:32.567Z,26.12
2023-03-06T19:09:32.519Z,34.27
2023-03-06T19:13:32.514Z,27.17
2023-03-06T19:17:32.443Z,24.96
2023-03-06T19:21:32.437Z,25.00
2023-03-06T19:25:32.383Z,27.52
2023-03-06T19:29:32.349Z,70.66
2023-03-06T19:33:32.362Z,55.66
2023-03-06T19:37:32.268Z,49.24
2023-03-06T19:41:32.209Z,43.70
2023-03-06T19:45:32.279Z,41.32
2023-03-06T19:49:32.136Z,59.80
2023-03-06T19:53:32.275Z,48.09
2023-03-06T19:57:32.425Z,37.41
2023-03-06T20:01:32.644Z,31.56
2023-03-06T20:05:32.702Z,46.08
2023-03-06T20:09:32.838Z,34.47
2023-03-06T20:13:32.972Z,45.16
2023-03-06T20:17:33.087Z,30.58
2023-03-06T20:21:33.232Z,26.59
2023-03-06T20:25:33.363Z,36.39
2023-03-06T20:29:33.530Z,36.39
2023-03-06T20:33:33.715Z,30.20
2023-03-06T20:37:33.920Z,25.59
2023-03-06T20:41:34.151Z,28.29
2023-03-06T20:45:34.372Z,47.96
2023-03-06T20:49:34.579Z,43.85
2023-03-06T20:53:34.790Z,41.56
2023-03-06T20:57:34.976Z,36.47
2023-03-06T21:01:34.992Z,39.43
2023-03-06T21:05:34.980Z,41.71
2023-03-06T21:09:34.870Z,42.79
2023-03-06T21:13:34.858Z,47.12
2023-03-06T21:17:34.794Z,44.87
2023-03-06T21:21:34.793Z,40.52
2023-03-06T21:25:34.749Z,38.96
2023-03-06T21:29:34.699Z,37.75
2023-03-06T21:33:34.672Z,28.60
2023-03-06T21:37:34.661Z,25.13
2023-03-06T21:41:34.771Z,27.78
2023-03-06T21:45:34.934Z,29.36
2023-03-06T21:49:34.907Z,41.62
2023-03-06T21:53:34.813Z,46.34
2023-03-06T21:57:34.782Z,47.80
2023-03-06T22:01:34.729Z,51.45
2023-03-06T22:05:34.715Z,57.67
2023-03-06T22:09:34.672Z,80.72
2023-03-06T22:13:34.670Z,93.11
2023-03-06T22:17:34.631Z,92.03
2023-03-06T22:21:34.601Z,87.56
2023-03-06T22:25:34.510Z,87.06
2023-03-06T22:29:34.500Z,88.79
2023-03-06T22:33:34.445Z,91.91
2023-03-06T22:37:34.456Z,95.71
2023-03-06T22:41:34.394Z,99.27
2023-03-06T22:45:34.746Z,95.79
2023-03-06T22:49:34.310Z,94.28
2023-03-06T22:53:34.290Z,95.84
2023-03-06T22:57:34.266Z,95.38
2023-03-06T23:01:34.290Z,92.75
2023-03-06T23:05:34.412Z,92.31
2023-03-06T23:09:34.653Z,92.72
2023-03-06T23:13:34.612Z,94.99
2023-03-06T23:17:34.529Z,97.89
2023-03-06T23:21:34.529Z,100.25
2023-03-06T23:25:34.488Z,96.10
2023-03-06T23:29:34.448Z,97.01
2023-03-06T23:33:34.436Z,113.18
2023-03-06T23:37:34.397Z,114.47
2023-03-06T23:41:34.349Z,123.61
2023-03-06T23:45:34.327Z,131.59
2023-03-06T23:49:34.281Z,119.02
2023-03-06T23:53:34.235Z,121.65
2023-03-06T23:57:34.183Z,121.94
